Time;durP1;ratioP1;P1;durP2;ratioP2;P2;SDS_P1;SDS_P2;PMS_P1;PMS_P2;Temp;Humidity;BMP_temperature;BMP_pressure;BME280_temperature;BME280_humidity;BME280_pressure;Samples;Min_cycle;Max_cycle;Signal;HPM_P1;HPM_P2
2021/06/17 00:02:03;;;;;;;7.95;2.95;;;;;;;;;;4464962;32;20243;-57
2021/06/17 00:04:28;;;;;;;7.93;3.95;;;;;;;;;;4455982;32;20671;-57
2021/06/17 00:06:54;;;;;;;6.32;3.15;;;;;;;;;;4464242;32;20258;-57
2021/06/17 00:09:19;;;;;;;8.75;2.92;;;;;;;;;;4465629;32;20246;-57
2021/06/17 00:11:45;;;;;;;6.35;3.33;;;;;;;;;;4465627;32;20274;-57
2021/06/17 00:14:10;;;;;;;4.82;3.20;;;;;;;;;;4453216;32;20238;-58
2021/06/17 00:16:36;;;;;;;5.25;3.30;;;;;;;;;;4453627;32;20220;-57
2021/06/17 00:19:02;;;;;;;7.95;3.60;;;;;;;;;;4465759;32;20315;-58
2021/06/17 00:21:27;;;;;;;7.95;3.62;;;;;;;;;;4465225;32;20258;-56
2021/06/17 00:23:53;;;;;;;5.37;3.58;;;;;;;;;;4465291;32;20540;-58
2021/06/17 00:26:19;;;;;;;5.65;3.30;;;;;;;;;;4465556;32;20250;-58
2021/06/17 00:28:45;;;;;;;6.18;3.42;;;;;;;;;;4465374;32;20201;-55
2021/06/17 00:31:10;;;;;;;6.68;3.58;;;;;;;;;;4456115;32;20538;-56
2021/06/17 00:33:36;;;;;;;6.05;3.33;;;;;;;;;;4449846;32;20223;-56
2021/06/17 00:36:01;;;;;;;5.87;3.35;;;;;;;;;;4450124;32;20279;-56
2021/06/17 00:38:27;;;;;;;8.40;3.78;;;;;;;;;;4450056;32;20648;-58
2021/06/17 00:40:54;;;;;;;7.22;3.70;;;;;;;;;;4448744;32;20346;-57
2021/06/17 00:43:19;;;;;;;5.30;3.65;;;;;;;;;;4449912;32;20549;-58
2021/06/17 00:45:46;;;;;;;5.28;3.08;;;;;;;;;;4449881;32;20284;-59
2021/06/17 00:48:13;;;;;;;8.02;3.50;;;;;;;;;;4449527;32;20209;-57
2021/06/17 00:50:49;;;;;;;7.55;3.35;;;;;;;;;;4449739;32;20339;-57
2021/06/17 00:53:16;;;;;;;9.32;3.60;;;;;;;;;;4449916;32;20220;-57
2021/06/17 00:55:44;;;;;;;6.97;3.55;;;;;;;;;;4449954;32;20763;-57
2021/06/17 00:58:10;;;;;;;7.35;3.55;;;;;;;;;;4449704;32;20247;-57
2021/06/17 01:00:36;;;;;;;4.68;2.85;;;;;;;;;;4449771;32;20299;-58
2021/06/17 01:03:03;;;;;;;7.78;3.22;;;;;;;;;;4449075;32;20338;-57
2021/06/17 01:05:29;;;;;;;3.92;2.85;;;;;;;;;;4457765;32;20205;-57
2021/06/17 01:08:00;;;;;;;7.60;3.40;;;;;;;;;;4449844;32;20288;-58
2021/06/17 01:10:44;;;;;;;8.25;4.70;;;;;;;;;;4449595;32;20287;-57
2021/06/17 01:13:13;;;;;;;18.55;12.13;;;;;;;;;;4454957;32;20307;-58
2021/06/17 01:15:47;;;;;;;13.25;8.40;;;;;;;;;;4465241;32;20250;-58
2021/06/17 01:18:16;;;;;;;11.15;7.65;;;;;;;;;;4464897;32;20243;-56
2021/06/17 01:20:54;;;;;;;11.35;4.60;;;;;;;;;;4465110;32;20204;-57
2021/06/17 01:23:59;;;;;;;6.62;4.85;;;;;;;;;;4464993;32;20520;-57
2021/06/17 01:26:31;;;;;;;8.00;4.90;;;;;;;;;;4464986;32;20262;-56
2021/06/17 01:28:58;;;;;;;5.45;4.68;;;;;;;;;;4464902;32;20227;-57
2021/06/17 01:31:27;;;;;;;9.30;3.80;;;;;;;;;;4454329;32;20225;-57
2021/06/17 01:33:55;;;;;;;9.45;4.05;;;;;;;;;;4449348;32;20306;-57
2021/06/17 01:36:28;;;;;;;6.50;3.83;;;;;;;;;;4449336;32;20284;-57
2021/06/17 01:38:57;;;;;;;6.72;3.72;;;;;;;;;;4449288;32;20567;-57
2021/06/17 01:41:26;;;;;;;4.57;3.87;;;;;;;;;;4449208;32;20295;-57
2021/06/17 01:43:53;;;;;;;6.60;3.87;;;;;;;;;;4449050;32;20291;-57
2021/06/17 01:46:20;;;;;;;6.55;3.15;;;;;;;;;;4447895;32;20563;-57
2021/06/17 01:48:50;;;;;;;5.50;3.47;;;;;;;;;;4449665;32;20221;-57
2021/06/17 01:51:20;;;;;;;5.35;3.33;;;;;;;;;;4449209;32;20247;-57
2021/06/17 01:53:48;;;;;;;4.68;3.53;;;;;;;;;;4449454;32;20628;-58
2021/06/17 01:56:17;;;;;;;4.30;3.90;;;;;;;;;;4449208;32;20250;-56
2021/06/17 01:58:45;;;;;;;7.50;3.53;;;;;;;;;;4449132;32;20339;-56
2021/06/17 02:01:11;;;;;;;8.68;3.47;;;;;;;;;;4448827;32;20262;-57
2021/06/17 02:03:37;;;;;;;5.93;3.22;;;;;;;;;;4450760;32;20319;-58
2021/06/17 02:06:03;;;;;;;5.50;2.50;;;;;;;;;;4464766;32;20683;-57
2021/06/17 02:08:29;;;;;;;7.00;3.53;;;;;;;;;;4464748;32;20276;-57
2021/06/17 02:10:55;;;;;;;3.72;2.78;;;;;;;;;;4464715;32;20280;-57
2021/06/17 02:13:21;;;;;;;6.40;3.58;;;;;;;;;;4464534;32;20331;-57
2021/06/17 02:15:49;;;;;;;8.07;3.28;;;;;;;;;;4463305;32;20310;-57
2021/06/17 02:18:20;;;;;;;8.68;3.28;;;;;;;;;;4450190;32;20216;-57
2021/06/17 02:20:45;;;;;;;4.20;3.50;;;;;;;;;;4449291;32;20205;-57
2021/06/17 02:23:14;;;;;;;6.20;3.20;;;;;;;;;;4449214;32;20433;-57
2021/06/17 02:25:41;;;;;;;8.38;4.20;;;;;;;;;;4451870;32;20208;-57
2021/06/17 02:28:12;;;;;;;5.95;3.17;;;;;;;;;;4451671;32;20273;-57
2021/06/17 02:30:40;;;;;;;4.68;3.00;;;;;;;;;;4453335;32;20221;-57
2021/06/17 02:33:08;;;;;;;14.90;3.53;;;;;;;;;;4467604;32;20283;-57
2021/06/17 02:35:36;;;;;;;5.62;3.33;;;;;;;;;;4467712;32;20265;-56
2021/06/17 02:38:06;;;;;;;4.37;2.97;;;;;;;;;;4467452;32;20255;-56
2021/06/17 02:40:36;;;;;;;4.25;3.05;;;;;;;;;;4467301;32;20600;-57
2021/06/17 02:43:07;;;;;;;4.25;3.22;;;;;;;;;;4467248;32;20246;-56
2021/06/17 02:45:33;;;;;;;10.23;3.30;;;;;;;;;;4467125;32;20378;-57
2021/06/17 02:47:59;;;;;;;4.25;2.97;;;;;;;;;;4467251;32;20246;-56
2021/06/17 02:50:25;;;;;;;5.05;3.53;;;;;;;;;;4467198;32;20274;-59
2021/06/17 02:52:50;;;;;;;6.35;3.70;;;;;;;;;;4467029;32;20216;-57
2021/06/17 02:55:17;;;;;;;6.37;3.50;;;;;;;;;;4465974;32;20216;-56
2021/06/17 02:57:49;;;;;;;6.15;3.22;;;;;;;;;;4466377;32;20329;-56
2021/06/17 03:00:20;;;;;;;3.70;2.80;;;;;;;;;;4467316;32;20192;-56
2021/06/17 03:02:54;;;;;;;5.15;2.92;;;;;;;;;;4465792;32;20231;-57
2021/06/17 03:05:41;;;;;;;7.25;3.25;;;;;;;;;;4466975;32;20257;-57
2021/06/17 03:08:17;;;;;;;7.40;3.12;;;;;;;;;;4466805;32;20314;-58
2021/06/17 03:10:45;;;;;;;4.45;3.50;;;;;;;;;;4467204;32;20291;-57
2021/06/17 03:13:12;;;;;;;7.60;3.03;;;;;;;;;;4461037;32;20259;-57
2021/06/17 03:15:43;;;;;;;10.70;3.33;;;;;;;;;;4451147;32;20192;-57
2021/06/17 03:18:10;;;;;;;9.48;3.50;;;;;;;;;;4464702;32;20298;-57
2021/06/17 03:20:39;;;;;;;9.38;3.67;;;;;;;;;;4466705;32;20215;-57
2021/06/17 03:23:10;;;;;;;10.07;3.78;;;;;;;;;;4467076;32;20672;-56
2021/06/17 03:25:37;;;;;;;8.10;3.72;;;;;;;;;;4466893;32;20219;-56
2021/06/17 03:28:04;;;;;;;3.60;3.30;;;;;;;;;;4465816;32;20662;-56
2021/06/17 03:30:32;;;;;;;3.37;2.95;;;;;;;;;;4461853;32;20216;-56
2021/06/17 03:32:59;;;;;;;4.95;2.80;;;;;;;;;;4450184;32;20224;-56
2021/06/17 03:35:28;;;;;;;6.65;2.92;;;;;;;;;;4449543;32;20319;-56
2021/06/17 03:37:56;;;;;;;9.35;3.22;;;;;;;;;;4451498;32;20690;-56
2021/06/17 03:40:23;;;;;;;7.22;4.62;;;;;;;;;;4450954;32;20328;-56
2021/06/17 03:42:51;;;;;;;9.55;4.05;;;;;;;;;;4450864;32;20224;-56
2021/06/17 03:45:19;;;;;;;10.77;3.78;;;;;;;;;;4450769;32;20234;-55
2021/06/17 03:47:47;;;;;;;4.75;3.55;;;;;;;;;;4451072;32;20208;-56
2021/06/17 03:50:15;;;;;;;7.70;3.70;;;;;;;;;;4450718;32;20232;-56
2021/06/17 03:52:44;;;;;;;17.02;4.22;;;;;;;;;;4451317;32;20212;-56
2021/06/17 03:55:12;;;;;;;10.18;4.28;;;;;;;;;;4450961;32;20208;-57
2021/06/17 03:57:39;;;;;;;6.93;3.62;;;;;;;;;;4451271;32;20267;-57
2021/06/17 04:00:07;;;;;;;8.52;4.50;;;;;;;;;;4450673;32;20273;-56
2021/06/17 04:02:33;;;;;;;7.30;4.43;;;;;;;;;;4450454;32;20319;-57
2021/06/17 04:04:58;;;;;;;16.08;5.50;;;;;;;;;;4461435;32;20568;-57
2021/06/17 04:07:27;;;;;;;6.28;4.60;;;;;;;;;;4466226;32;20263;-58
2021/06/17 04:09:54;;;;;;;17.05;4.57;;;;;;;;;;4466275;32;20310;-57
2021/06/17 04:12:22;;;;;;;7.47;4.37;;;;;;;;;;4466057;32;20246;-57
2021/06/17 04:14:50;;;;;;;7.20;4.87;;;;;;;;;;4465969;32;20307;-58
2021/06/17 04:17:26;;;;;;;12.18;5.03;;;;;;;;;;4457655;32;20285;-56
2021/06/17 04:19:53;;;;;;;9.18;4.70;;;;;;;;;;4450213;32;20557;-56
2021/06/17 04:22:20;;;;;;;6.20;3.95;;;;;;;;;;4450470;32;20259;-56
2021/06/17 04:24:51;;;;;;;10.45;4.37;;;;;;;;;;4450030;32;20587;-57
2021/06/17 04:27:20;;;;;;;6.22;4.72;;;;;;;;;;4450616;32;20294;-57
2021/06/17 04:29:48;;;;;;;11.15;5.22;;;;;;;;;;4449538;32;20238;-57
2021/06/17 04:32:14;;;;;;;14.05;4.32;;;;;;;;;;4461569;32;20243;-57
2021/06/17 04:34:42;;;;;;;10.57;5.50;;;;;;;;;;4465509;32;20200;-57
2021/06/17 04:37:10;;;;;;;7.70;4.25;;;;;;;;;;4464456;32;20264;-56
2021/06/17 04:39:37;;;;;;;8.05;5.07;;;;;;;;;;4465128;32;20192;-57
2021/06/17 04:42:03;;;;;;;8.25;4.72;;;;;;;;;;4465476;32;20733;-56
2021/06/17 04:44:30;;;;;;;8.27;3.58;;;;;;;;;;4465196;32;20243;-57
2021/06/17 04:46:57;;;;;;;10.50;4.53;;;;;;;;;;4463458;32;20312;-57
2021/06/17 04:49:22;;;;;;;12.37;4.82;;;;;;;;;;4465302;32;20271;-57
2021/06/17 04:51:49;;;;;;;9.70;4.28;;;;;;;;;;4464970;32;20307;-56
2021/06/17 04:54:18;;;;;;;18.85;4.28;;;;;;;;;;4464792;32;20205;-56
2021/06/17 04:56:47;;;;;;;6.50;4.40;;;;;;;;;;4464825;32;20228;-57
2021/06/17 04:59:16;;;;;;;6.75;4.00;;;;;;;;;;4463918;32;20228;-58
2021/06/17 05:01:42;;;;;;;6.30;4.43;;;;;;;;;;4464252;32;20580;-58
2021/06/17 05:04:09;;;;;;;10.07;4.32;;;;;;;;;;4458020;32;20295;-58
2021/06/17 05:06:37;;;;;;;7.05;4.12;;;;;;;;;;4449469;32;20303;-58
2021/06/17 05:11:50;;;;;;;8.80;4.72;;;;;;;;;;4449495;32;20305;-57
2021/06/17 05:14:16;;;;;;;7.62;4.12;;;;;;;;;;4462132;32;20200;-57
2021/06/17 05:16:42;;;;;;;6.68;5.00;;;;;;;;;;4458766;32;20771;-56
2021/06/17 05:19:07;;;;;;;10.45;4.30;;;;;;;;;;4447810;32;20278;-56
2021/06/17 05:21:33;;;;;;;5.25;3.47;;;;;;;;;;4447524;32;20677;-56
2021/06/17 05:23:59;;;;;;;9.32;4.20;;;;;;;;;;4448828;32;20204;-57
2021/06/17 05:26:24;;;;;;;7.97;4.10;;;;;;;;;;4449131;32;20246;-57
2021/06/17 05:28:50;;;;;;;6.65;4.07;;;;;;;;;;4449333;32;20193;-56
2021/06/17 05:31:15;;;;;;;8.32;3.75;;;;;;;;;;4447028;32;20240;-57
2021/06/17 05:33:43;;;;;;;8.02;4.00;;;;;;;;;;4448637;32;20648;-57
2021/06/17 05:36:08;;;;;;;3.95;3.55;;;;;;;;;;4449167;32;20303;-57
2021/06/17 05:38:34;;;;;;;6.18;4.30;;;;;;;;;;4448887;32;20261;-57
2021/06/17 05:41:00;;;;;;;5.68;4.00;;;;;;;;;;4449120;32;20271;-58
2021/06/17 05:43:26;;;;;;;8.80;4.30;;;;;;;;;;4447773;32;20212;-57
2021/06/17 05:45:52;;;;;;;6.68;4.28;;;;;;;;;;4448599;32;20767;-57
2021/06/17 05:48:17;;;;;;;5.43;4.10;;;;;;;;;;4449158;32;20268;-57
2021/06/17 05:50:43;;;;;;;9.20;5.07;;;;;;;;;;4448957;32;20275;-57
2021/06/17 05:53:08;;;;;;;9.38;4.00;;;;;;;;;;4447834;32;20299;-57
2021/06/17 05:55:34;;;;;;;4.72;3.85;;;;;;;;;;4447661;32;20400;-58
2021/06/17 05:58:00;;;;;;;17.20;4.72;;;;;;;;;;4448827;32;20221;-57
2021/06/17 06:00:25;;;;;;;8.30;4.90;;;;;;;;;;4448900;32;20697;-59
2021/06/17 06:02:51;;;;;;;6.75;4.80;;;;;;;;;;4447611;32;20460;-57
2021/06/17 06:05:16;;;;;;;8.95;5.47;;;;;;;;;;4461503;32;20200;-57
2021/06/17 06:07:42;;;;;;;12.25;5.10;;;;;;;;;;4464275;32;20287;-57
2021/06/17 06:10:09;;;;;;;7.32;4.95;;;;;;;;;;4464356;32;20212;-58
2021/06/17 06:12:35;;;;;;;12.77;5.70;;;;;;;;;;4463032;32;20247;-57
2021/06/17 06:15:01;;;;;;;8.07;4.85;;;;;;;;;;4464429;32;20279;-57
2021/06/17 06:17:26;;;;;;;9.75;4.40;;;;;;;;;;4454888;32;20224;-57
2021/06/17 06:19:52;;;;;;;6.95;4.20;;;;;;;;;;4448979;32;20280;-57
2021/06/17 06:22:17;;;;;;;13.15;5.20;;;;;;;;;;4448766;32;20275;-57
2021/06/17 06:24:43;;;;;;;22.37;5.10;;;;;;;;;;4449034;32;20265;-58
2021/06/17 06:27:09;;;;;;;7.55;4.37;;;;;;;;;;4448793;32;20224;-56
2021/06/17 06:29:35;;;;;;;10.55;3.95;;;;;;;;;;4448873;32;20192;-57
2021/06/17 06:32:02;;;;;;;8.70;3.62;;;;;;;;;;4459123;32;20308;-58
2021/06/17 06:34:28;;;;;;;15.82;4.85;;;;;;;;;;4463798;32;20692;-57
2021/06/17 06:36:53;;;;;;;16.58;9.13;;;;;;;;;;4463596;32;20253;-57
2021/06/17 06:39:20;;;;;;;6.85;5.35;;;;;;;;;;4463664;32;20549;-57
2021/06/17 06:41:46;;;;;;;5.72;3.75;;;;;;;;;;4463814;32;20236;-56
2021/06/17 06:44:12;;;;;;;8.68;4.35;;;;;;;;;;4463487;32;20541;-57
2021/06/17 06:46:38;;;;;;;7.80;3.53;;;;;;;;;;4463639;32;20559;-57
2021/06/17 06:49:04;;;;;;;10.20;3.60;;;;;;;;;;4462803;32;20231;-58
2021/06/17 06:51:30;;;;;;;7.57;4.20;;;;;;;;;;4463629;32;20250;-58
2021/06/17 06:53:56;;;;;;;11.98;4.72;;;;;;;;;;4463624;32;20192;-57
2021/06/17 06:56:21;;;;;;;9.40;4.05;;;;;;;;;;4463500;32;20277;-56
2021/06/17 06:58:47;;;;;;;4.20;3.80;;;;;;;;;;4463499;32;20228;-58
2021/06/17 07:01:12;;;;;;;9.50;3.83;;;;;;;;;;4461410;32;20428;-57
2021/06/17 07:03:38;;;;;;;12.00;4.12;;;;;;;;;;4463362;32;20549;-57
2021/06/17 07:06:03;;;;;;;9.10;3.72;;;;;;;;;;4463644;32;20706;-56
2021/06/17 07:08:29;;;;;;;15.13;4.70;;;;;;;;;;4463763;32;20203;-57
2021/06/17 07:10:54;;;;;;;10.35;3.90;;;;;;;;;;4466474;32;20577;-56
2021/06/17 07:13:22;;;;;;;8.50;3.25;;;;;;;;;;4460434;32;20294;-57
2021/06/17 07:15:47;;;;;;;12.05;4.03;;;;;;;;;;4450146;32;20335;-58
2021/06/17 07:18:13;;;;;;;11.80;4.15;;;;;;;;;;4463833;32;20621;-57
2021/06/17 07:20:38;;;;;;;9.13;4.72;;;;;;;;;;4466190;32;20279;-57
2021/06/17 07:23:04;;;;;;;14.50;4.72;;;;;;;;;;4466091;32;20239;-57
2021/06/17 07:25:30;;;;;;;14.75;4.00;;;;;;;;;;4466555;32;20293;-56
2021/06/17 07:27:56;;;;;;;16.30;4.55;;;;;;;;;;4466307;32;20232;-56
2021/06/17 07:30:26;;;;;;;8.43;4.55;;;;;;;;;;4461673;32;20281;-57
2021/06/17 07:32:52;;;;;;;11.75;4.30;;;;;;;;;;4450121;32;20221;-58
2021/06/17 07:35:18;;;;;;;19.02;3.87;;;;;;;;;;4450520;32;20620;-58
2021/06/17 07:37:43;;;;;;;9.35;3.40;;;;;;;;;;4450442;32;20232;-56
2021/06/17 07:40:11;;;;;;;10.13;3.40;;;;;;;;;;4450116;32;20253;-57
2021/06/17 07:42:37;;;;;;;8.68;3.17;;;;;;;;;;4449936;32;20739;-57
2021/06/17 07:45:07;;;;;;;9.10;4.37;;;;;;;;;;4450294;32;20393;-57
2021/06/17 07:47:33;;;;;;;12.65;4.03;;;;;;;;;;4449605;32;20299;-57
2021/06/17 07:49:58;;;;;;;12.25;4.22;;;;;;;;;;4450391;32;20253;-57
2021/06/17 07:52:24;;;;;;;13.70;4.65;;;;;;;;;;4450157;32;20541;-58
2021/06/17 07:54:49;;;;;;;11.02;3.90;;;;;;;;;;4450714;32;20209;-58
2021/06/17 07:57:15;;;;;;;5.22;3.40;;;;;;;;;;4462558;32;20256;-58
2021/06/17 07:59:41;;;;;;;14.23;4.65;;;;;;;;;;4448835;32;20784;-57
2021/06/17 08:02:07;;;;;;;9.52;3.47;;;;;;;;;;4452974;32;20263;-57
2021/06/17 08:04:33;;;;;;;5.47;3.87;;;;;;;;;;4458056;32;20315;-57
2021/06/17 08:06:58;;;;;;;6.35;3.87;;;;;;;;;;4462038;32;20232;-57
2021/06/17 08:09:24;;;;;;;8.65;4.05;;;;;;;;;;4448718;32;20205;-57
2021/06/17 08:11:51;;;;;;;7.12;3.60;;;;;;;;;;4448353;32;20557;-58
2021/06/17 08:14:25;;;;;;;8.63;3.70;;;;;;;;;;4462106;32;20204;-57
2021/06/17 08:16:52;;;;;;;8.68;3.58;;;;;;;;;;4458746;32;20707;-57
2021/06/17 08:19:18;;;;;;;7.75;4.05;;;;;;;;;;4449443;32;20304;-58
2021/06/17 08:21:44;;;;;;;15.25;4.40;;;;;;;;;;4449447;32;20629;-57
2021/06/17 08:24:10;;;;;;;9.38;3.25;;;;;;;;;;4449783;32;20234;-57
2021/06/17 08:26:36;;;;;;;5.70;3.33;;;;;;;;;;4448945;32;20315;-56
2021/06/17 08:29:02;;;;;;;10.10;3.72;;;;;;;;;;4449712;32;20291;-57
2021/06/17 08:31:28;;;;;;;9.52;3.12;;;;;;;;;;4456507;32;20280;-56
2021/06/17 08:33:55;;;;;;;3.62;2.78;;;;;;;;;;4466018;32;20336;-57
2021/06/17 08:36:21;;;;;;;4.68;2.70;;;;;;;;;;4465647;32;20258;-56
2021/06/17 08:38:46;;;;;;;16.37;3.30;;;;;;;;;;4465136;32;20208;-57
2021/06/17 08:41:13;;;;;;;3.17;2.40;;;;;;;;;;4465791;32;20270;-57
2021/06/17 08:43:39;;;;;;;3.60;2.33;;;;;;;;;;4465417;32;20212;-56
2021/06/17 08:46:05;;;;;;;8.30;2.85;;;;;;;;;;4465170;32;20694;-56
2021/06/17 08:48:31;;;;;;;5.62;2.70;;;;;;;;;;4464538;32;20221;-56
2021/06/17 08:50:56;;;;;;;4.78;2.22;;;;;;;;;;4464902;32;20327;-57
2021/06/17 08:53:22;;;;;;;4.28;2.22;;;;;;;;;;4465749;32;20257;-58
2021/06/17 08:55:48;;;;;;;5.97;2.65;;;;;;;;;;4466082;32;20741;-58
2021/06/17 08:58:14;;;;;;;6.40;2.28;;;;;;;;;;4465185;32;20298;-57
2021/06/17 09:00:42;;;;;;;4.57;3.12;;;;;;;;;;4464279;32;20363;-57
2021/06/17 09:03:13;;;;;;;7.60;2.47;;;;;;;;;;4465467;32;20240;-57
2021/06/17 09:05:41;;;;;;;6.37;2.90;;;;;;;;;;4465027;32;20215;-57
2021/06/17 09:08:08;;;;;;;7.47;2.83;;;;;;;;;;4465907;32;20247;-57
2021/06/17 09:10:39;;;;;;;10.75;2.30;;;;;;;;;;4465430;32;20256;-57
2021/06/17 09:13:05;;;;;;;10.65;2.42;;;;;;;;;;4460316;32;20258;-57
2021/06/17 09:15:44;;;;;;;5.60;2.40;;;;;;;;;;4449338;32;20297;-58
2021/06/17 09:18:19;;;;;;;3.53;2.40;;;;;;;;;;4463230;32;20224;-57
2021/06/17 09:20:51;;;;;;;4.03;2.10;;;;;;;;;;4465252;32;20355;-57
2021/06/17 09:23:43;;;;;;;6.37;2.70;;;;;;;;;;4464711;32;20228;-57
2021/06/17 09:26:23;;;;;;;7.30;2.00;;;;;;;;;;4465159;32;20334;-57
2021/06/17 09:29:10;;;;;;;9.63;2.42;;;;;;;;;;4465117;32;20227;-56
2021/06/17 09:31:40;;;;;;;3.87;2.60;;;;;;;;;;4452983;32;20270;-56
2021/06/17 09:34:07;;;;;;;12.60;2.12;;;;;;;;;;4449681;32;20287;-58
2021/06/17 09:36:35;;;;;;;3.37;2.30;;;;;;;;;;4449614;32;20345;-57
2021/06/17 09:39:19;;;;;;;2.28;1.77;;;;;;;;;;4449476;32;20766;-57
2021/06/17 09:41:46;;;;;;;3.33;2.40;;;;;;;;;;4449711;32;20299;-58
2021/06/17 09:44:33;;;;;;;7.53;2.65;;;;;;;;;;4449758;32;20619;-57
2021/06/17 09:47:11;;;;;;;4.70;2.03;;;;;;;;;;4449555;32;20304;-57
2021/06/17 09:49:39;;;;;;;3.60;2.10;;;;;;;;;;4449657;32;20208;-57
2021/06/17 09:52:06;;;;;;;7.03;2.15;;;;;;;;;;4450422;32;20228;-56
2021/06/17 09:54:32;;;;;;;3.75;2.03;;;;;;;;;;4450507;32;20205;-57
2021/06/17 09:57:04;;;;;;;4.03;2.60;;;;;;;;;;4450054;32;20564;-56
2021/06/17 09:59:44;;;;;;;7.68;2.00;;;;;;;;;;4449561;32;20223;-57
2021/06/17 10:02:21;;;;;;;5.53;2.47;;;;;;;;;;4449375;32;20240;-56
2021/06/17 10:04:47;;;;;;;5.72;2.50;;;;;;;;;;4458672;32;20271;-58
2021/06/17 10:07:13;;;;;;;6.82;2.37;;;;;;;;;;4465288;32;20501;-58
2021/06/17 10:09:39;;;;;;;5.93;2.28;;;;;;;;;;4465063;32;20697;-57
2021/06/17 10:12:05;;;;;;;6.95;2.30;;;;;;;;;;4464983;32;20228;-56
2021/06/17 10:14:31;;;;;;;10.63;2.42;;;;;;;;;;4464955;32;20224;-57
2021/06/17 10:16:59;;;;;;;3.87;2.05;;;;;;;;;;4458931;32;20228;-57
2021/06/17 10:19:25;;;;;;;2.65;1.75;;;;;;;;;;4448878;32;20226;-57
2021/06/17 10:21:52;;;;;;;5.93;1.98;;;;;;;;;;4448525;32;20312;-57
2021/06/17 10:24:26;;;;;;;2.53;1.98;;;;;;;;;;4448787;32;20205;-57
2021/06/17 10:26:55;;;;;;;4.15;2.10;;;;;;;;;;4448540;32;20215;-57
2021/06/17 10:29:26;;;;;;;3.12;2.00;;;;;;;;;;4448377;32;20227;-57
2021/06/17 10:31:52;;;;;;;4.43;2.42;;;;;;;;;;4451714;32;20398;-57
2021/06/17 10:34:30;;;;;;;3.42;2.30;;;;;;;;;;4448349;32;20208;-58
2021/06/17 10:37:06;;;;;;;5.78;2.75;;;;;;;;;;4447286;32;20235;-57
2021/06/17 10:39:42;;;;;;;3.05;2.28;;;;;;;;;;4448504;32;20582;-57
2021/06/17 10:42:25;;;;;;;6.03;2.60;;;;;;;;;;4448617;32;20318;-57
2021/06/17 10:44:57;;;;;;;4.25;2.70;;;;;;;;;;4450334;32;20221;-57
2021/06/17 10:50:11;;;;;;;6.55;3.10;;;;;;;;;;4451756;32;20555;-57
2021/06/17 10:52:38;;;;;;;13.57;4.22;;;;;;;;;;4452373;32;20556;-57
2021/06/17 10:55:09;;;;;;;8.77;3.17;;;;;;;;;;4451783;32;20235;-57
2021/06/17 10:57:43;;;;;;;5.28;3.47;;;;;;;;;;4452108;32;20205;-58
2021/06/17 11:00:46;;;;;;;3.95;2.80;;;;;;;;;;4451835;32;20199;-58
2021/06/17 11:03:11;;;;;;;6.30;2.70;;;;;;;;;;4423860;32;21416;-58
2021/06/17 11:05:40;;;;;;;3.87;2.62;;;;;;;;;;4466357;32;20242;-57
2021/06/17 11:08:26;;;;;;;6.32;2.53;;;;;;;;;;4467463;32;20274;-57
2021/06/17 11:10:58;;;;;;;7.55;2.60;;;;;;;;;;4467429;32;20532;-57
2021/06/17 11:13:31;;;;;;;7.50;2.62;;;;;;;;;;4467235;32;20352;-57
2021/06/17 11:16:27;;;;;;;11.35;3.12;;;;;;;;;;4467239;32;20236;-58
2021/06/17 11:18:59;;;;;;;7.20;2.58;;;;;;;;;;4452183;32;20309;-57
2021/06/17 11:21:28;;;;;;;6.60;2.10;;;;;;;;;;4438644;32;20217;-57
2021/06/17 11:24:00;;;;;;;5.00;2.60;;;;;;;;;;4451271;32;20288;-58
2021/06/17 11:26:41;;;;;;;3.40;2.30;;;;;;;;;;4452119;32;20224;-57
2021/06/17 11:29:08;;;;;;;3.20;1.87;;;;;;;;;;4452128;32;20199;-57
2021/06/17 11:31:41;;;;;;;3.37;1.92;;;;;;;;;;4452285;32;20644;-58
2021/06/17 11:34:09;;;;;;;8.20;2.62;;;;;;;;;;4451665;32;20228;-58
2021/06/17 11:36:46;;;;;;;4.72;1.80;;;;;;;;;;4451344;32;20258;-57
2021/06/17 11:39:11;;;;;;;5.97;1.75;;;;;;;;;;4451791;32;20263;-57
2021/06/17 11:41:38;;;;;;;7.45;1.92;;;;;;;;;;4451410;32;20284;-57
2021/06/17 11:44:05;;;;;;;2.25;1.80;;;;;;;;;;4450676;32;20204;-57
2021/06/17 11:46:37;;;;;;;3.80;1.80;;;;;;;;;;4450735;32;20280;-57
2021/06/17 11:49:07;;;;;;;2.17;1.75;;;;;;;;;;4449419;32;20220;-58
2021/06/17 11:51:47;;;;;;;5.05;1.50;;;;;;;;;;4450929;32;20310;-57
2021/06/17 11:54:21;;;;;;;4.28;2.47;;;;;;;;;;4450660;32;20259;-57
2021/06/17 11:56:48;;;;;;;4.53;1.50;;;;;;;;;;4450767;32;20217;-57
2021/06/17 11:59:20;;;;;;;6.18;2.40;;;;;;;;;;4450285;32;20616;-57
2021/06/17 12:02:26;;;;;;;9.63;1.80;;;;;;;;;;4450547;32;20567;-57
2021/06/17 12:05:07;;;;;;;3.28;1.55;;;;;;;;;;4396396;32;20245;-57
2021/06/17 12:07:38;;;;;;;2.62;1.80;;;;;;;;;;4447702;32;20584;-57
2021/06/17 12:10:23;;;;;;;2.70;1.52;;;;;;;;;;4451047;32;20295;-57
2021/06/17 12:12:57;;;;;;;7.87;2.35;;;;;;;;;;4454099;32;20587;-58
2021/06/17 12:15:35;;;;;;;5.15;2.42;;;;;;;;;;4466508;32;20385;-58
2021/06/17 12:18:03;;;;;;;4.70;1.80;;;;;;;;;;4453509;32;20259;-57
2021/06/17 12:20:35;;;;;;;3.97;2.30;;;;;;;;;;4451291;32;20708;-58
2021/06/17 12:23:00;;;;;;;2.75;1.75;;;;;;;;;;4449339;32;20249;-57
2021/06/17 12:25:37;;;;;;;3.25;1.20;;;;;;;;;;4450674;32;20348;-57
2021/06/17 12:28:07;;;;;;;7.03;2.60;;;;;;;;;;4450585;32;20328;-57
2021/06/17 12:30:43;;;;;;;4.78;1.55;;;;;;;;;;4451110;32;20286;-57
2021/06/17 12:33:15;;;;;;;2.80;1.77;;;;;;;;;;4465991;32;20640;-57
2021/06/17 12:35:44;;;;;;;1.10;1.00;;;;;;;;;;4466046;32;20263;-58
2021/06/17 12:38:11;;;;;;;1.98;1.33;;;;;;;;;;4465738;32;20643;-57
2021/06/17 12:40:41;;;;;;;3.50;1.50;;;;;;;;;;4465555;32;20203;-57
2021/06/17 12:43:25;;;;;;;11.82;1.90;;;;;;;;;;4465355;32;20723;-57
2021/06/17 12:46:06;;;;;;;6.03;2.45;;;;;;;;;;4465990;32;20588;-57
2021/06/17 12:54:22;;;;;;;2.45;1.77;;;;;;;;;;4465884;32;20301;-58
2021/06/17 12:56:50;;;;;;;4.80;1.40;;;;;;;;;;4466148;32;20295;-59
2021/06/17 12:59:16;;;;;;;3.25;1.40;;;;;;;;;;4465082;32;20690;-57
2021/06/17 13:01:47;;;;;;;8.48;1.85;;;;;;;;;;4465068;32;20227;-57
2021/06/17 13:04:17;;;;;;;3.05;2.03;;;;;;;;;;4465185;32;20302;-57
2021/06/17 13:06:43;;;;;;;5.80;1.87;;;;;;;;;;4464722;32;20321;-57
2021/06/17 13:09:19;;;;;;;4.30;1.60;;;;;;;;;;4465179;32;20623;-57
2021/06/17 13:11:44;;;;;;;3.95;1.65;;;;;;;;;;4464791;32;20219;-57
2021/06/17 13:14:09;;;;;;;2.60;1.65;;;;;;;;;;4464820;32;20326;-57
2021/06/17 13:16:36;;;;;;;3.58;1.85;;;;;;;;;;4461279;32;20213;-57
2021/06/17 13:19:11;;;;;;;2.83;1.70;;;;;;;;;;4449709;32;20418;-57
2021/06/17 13:21:37;;;;;;;2.08;1.50;;;;;;;;;;4449610;32;20216;-58
2021/06/17 13:24:23;;;;;;;1.55;1.42;;;;;;;;;;4449801;32;20566;-57
2021/06/17 13:26:48;;;;;;;4.15;1.70;;;;;;;;;;4448289;32;20315;-58
2021/06/17 13:29:15;;;;;;;6.05;1.85;;;;;;;;;;4448057;32;20246;-57
2021/06/17 13:31:41;;;;;;;3.53;2.00;;;;;;;;;;4461614;32;20632;-57
2021/06/17 13:34:09;;;;;;;9.93;1.98;;;;;;;;;;4451176;32;20205;-57
2021/06/17 13:36:36;;;;;;;10.02;1.90;;;;;;;;;;4449047;32;20220;-57
2021/06/17 13:39:03;;;;;;;3.42;1.95;;;;;;;;;;4449129;32;20300;-58
2021/06/17 13:41:29;;;;;;;3.37;1.90;;;;;;;;;;4449399;32;20280;-57
2021/06/17 13:43:54;;;;;;;5.62;1.70;;;;;;;;;;4449097;32;20213;-58
2021/06/17 13:46:20;;;;;;;1.90;1.62;;;;;;;;;;4449701;32;20246;-57
2021/06/17 13:48:45;;;;;;;7.07;1.92;;;;;;;;;;4449950;32;20230;-58
2021/06/17 13:51:13;;;;;;;5.03;2.03;;;;;;;;;;4449636;32;20255;-57
2021/06/17 13:53:39;;;;;;;2.15;1.42;;;;;;;;;;4449741;32;20363;-57
2021/06/17 13:56:08;;;;;;;7.30;2.05;;;;;;;;;;4450219;32;20791;-57
2021/06/17 13:58:34;;;;;;;2.75;1.50;;;;;;;;;;4449039;32;20458;-57
2021/06/17 14:01:02;;;;;;;2.25;1.60;;;;;;;;;;4449030;32;20210;-57
2021/06/17 14:03:28;;;;;;;4.28;1.40;;;;;;;;;;4450103;32;20629;-56
2021/06/17 14:05:53;;;;;;;1.87;1.48;;;;;;;;;;4465128;32;20334;-56
2021/06/17 14:08:19;;;;;;;4.55;1.55;;;;;;;;;;4464869;32;20683;-56
2021/06/17 14:10:45;;;;;;;6.15;1.50;;;;;;;;;;4465163;32;20290;-58
2021/06/17 14:13:10;;;;;;;4.47;1.80;;;;;;;;;;4464811;32;20739;-57
2021/06/17 14:15:37;;;;;;;8.30;2.53;;;;;;;;;;4463694;32;20295;-57
2021/06/17 14:18:04;;;;;;;4.28;1.77;;;;;;;;;;4451948;32;20775;-56
2021/06/17 14:20:30;;;;;;;2.65;1.40;;;;;;;;;;4452794;32;20658;-58
2021/06/17 14:22:57;;;;;;;8.05;2.45;;;;;;;;;;4452731;32;20223;-56
2021/06/17 14:25:22;;;;;;;6.22;1.45;;;;;;;;;;4452663;32;20295;-56
2021/06/17 14:27:49;;;;;;;4.30;1.40;;;;;;;;;;4451658;32;20299;-57
2021/06/17 14:30:18;;;;;;;7.97;1.90;;;;;;;;;;4452627;32;20282;-57
2021/06/17 14:32:43;;;;;;;14.87;1.92;;;;;;;;;;4467976;32;20266;-57
2021/06/17 14:35:09;;;;;;;4.82;2.10;;;;;;;;;;4468504;32;20196;-57
2021/06/17 14:37:35;;;;;;;2.35;1.98;;;;;;;;;;4468336;32;20264;-56
2021/06/17 14:40:00;;;;;;;2.90;1.75;;;;;;;;;;4468235;32;20259;-56
2021/06/17 14:42:27;;;;;;;8.07;1.77;;;;;;;;;;4467910;32;20557;-56
2021/06/17 14:44:53;;;;;;;3.58;1.65;;;;;;;;;;4468103;32;20656;-56
2021/06/17 14:47:19;;;;;;;4.93;1.62;;;;;;;;;;4468448;32;20224;-56
2021/06/17 14:49:44;;;;;;;2.83;1.60;;;;;;;;;;4467769;32;20285;-57
2021/06/17 14:52:10;;;;;;;10.13;2.00;;;;;;;;;;4468096;32;20208;-57
2021/06/17 14:54:35;;;;;;;2.40;1.40;;;;;;;;;;4468102;32;20196;-57
2021/06/17 14:57:05;;;;;;;2.95;2.08;;;;;;;;;;4467897;32;20251;-57
2021/06/17 14:59:30;;;;;;;9.00;2.17;;;;;;;;;;4467820;32;20612;-56
2021/06/17 15:01:56;;;;;;;2.60;1.50;;;;;;;;;;4467676;32;20292;-56